sensor_id;sensor_type;location;lat;lon;timestamp;temperature;humidity
21061;DHT22;10689;50.836;3.266;2023-03-01T00:00:41;1.60;99.90
21061;DHT22;10689;50.836;3.266;2023-03-01T00:03:07;1.60;99.90
21061;DHT22;10689;50.836;3.266;2023-03-01T00:05:35;1.70;99.90
21061;DHT22;10689;50.836;3.266;2023-03-01T00:08:01;1.70;99.90
21061;DHT22;10689;50.836;3.266;2023-03-01T00:10:26;1.60;99.90
21061;DHT22;10689;50.836;3.266;2023-03-01T00:12:52;1.50;99.90
21061;DHT22;10689;50.836;3.266;2023-03-01T00:15:18;1.50;99.90
21061;DHT22;10689;50.836;3.266;2023-03-01T00:17:46;1.50;99.90
21061;DHT22;10689;50.836;3.266;2023-03-01T00:20:14;1.50;99.90
21061;DHT22;10689;50.836;3.266;2023-03-01T00:22:39;1.50;99.90
21061;DHT22;10689;50.836;3.266;2023-03-01T00:25:08;1.40;99.90
21061;DHT22;10689;50.836;3.266;2023-03-01T00:27:33;1.30;99.90
21061;DHT22;10689;50.836;3.266;2023-03-01T00:30:03;1.20;99.90
21061;DHT22;10689;50.836;3.266;2023-03-01T00:32:29;1.30;99.90
21061;DHT22;10689;50.836;3.266;2023-03-01T00:34:55;1.30;99.90
21061;DHT22;10689;50.836;3.266;2023-03-01T00:37:21;1.20;99.90
21061;DHT22;10689;50.836;3.266;2023-03-01T00:39:47;1.00;99.90
21061;DHT22;10689;50.836;3.266;2023-03-01T00:42:13;1.30;99.90
21061;DHT22;10689;50.836;3.266;2023-03-01T00:44:39;1.30;99.90
21061;DHT22;10689;50.836;3.266;2023-03-01T00:47:04;1.30;99.90
21061;DHT22;10689;50.836;3.266;2023-03-01T00:49:33;1.30;99.90
21061;DHT22;10689;50.836;3.266;2023-03-01T00:51:58;1.20;99.90
21061;DHT22;10689;50.836;3.266;2023-03-01T00:54:24;1.30;99.90
21061;DHT22;10689;50.836;3.266;2023-03-01T00:56:50;1.30;99.90
21061;DHT22;10689;50.836;3.266;2023-03-01T00:59:15;1.50;99.90
21061;DHT22;10689;50.836;3.266;2023-03-01T01:01:41;1.50;99.90
21061;DHT22;10689;50.836;3.266;2023-03-01T01:04:12;1.50;99.90
21061;DHT22;10689;50.836;3.266;2023-03-01T01:06:43;1.40;99.90
21061;DHT22;10689;50.836;3.266;2023-03-01T01:09:14;1.30;99.90
21061;DHT22;10689;50.836;3.266;2023-03-01T01:11:47;1.40;99.90
21061;DHT22;10689;50.836;3.266;2023-03-01T01:14:13;1.40;99.90
21061;DHT22;10689;50.836;3.266;2023-03-01T01:16:39;1.40;99.90
21061;DHT22;10689;50.836;3.266;2023-03-01T01:19:07;1.40;99.90
21061;DHT22;10689;50.836;3.266;2023-03-01T01:21:34;1.40;99.90
21061;DHT22;10689;50.836;3.266;2023-03-01T01:23:59;1.50;99.90
21061;DHT22;10689;50.836;3.266;2023-03-01T01:26:28;1.50;99.90
21061;DHT22;10689;50.836;3.266;2023-03-01T01:28:55;1.50;99.90
21061;DHT22;10689;50.836;3.266;2023-03-01T01:31:21;1.50;99.90
21061;DHT22;10689;50.836;3.266;2023-03-01T01:33:51;1.40;99.90
21061;DHT22;10689;50.836;3.266;2023-03-01T01:36:18;1.40;99.90
21061;DHT22;10689;50.836;3.266;2023-03-01T01:38:44;1.40;99.90
21061;DHT22;10689;50.836;3.266;2023-03-01T01:41:13;1.50;99.90
21061;DHT22;10689;50.836;3.266;2023-03-01T01:43:41;1.50;99.90
21061;DHT22;10689;50.836;3.266;2023-03-01T01:48:58;1.40;99.90
21061;DHT22;10689;50.836;3.266;2023-03-01T01:51:35;1.40;99.90
21061;DHT22;10689;50.836;3.266;2023-03-01T01:54:08;1.40;99.90
21061;DHT22;10689;50.836;3.266;2023-03-01T01:56:36;1.40;99.90
21061;DHT22;10689;50.836;3.266;2023-03-01T01:59:02;1.30;99.90
21061;DHT22;10689;50.836;3.266;2023-03-01T02:01:28;1.40;99.90
21061;DHT22;10689;50.836;3.266;2023-03-01T02:03:56;1.40;99.90
21061;DHT22;10689;50.836;3.266;2023-03-01T02:06:27;1.40;99.90
21061;DHT22;10689;50.836;3.266;2023-03-01T02:09:00;1.40;99.90
21061;DHT22;10689;50.836;3.266;2023-03-01T02:11:29;1.30;99.90
21061;DHT22;10689;50.836;3.266;2023-03-01T02:13:56;1.30;99.90
21061;DHT22;10689;50.836;3.266;2023-03-01T02:16:26;1.30;99.90
21061;DHT22;10689;50.836;3.266;2023-03-01T02:18:52;1.30;99.90
21061;DHT22;10689;50.836;3.266;2023-03-01T02:24:05;1.30;99.90
21061;DHT22;10689;50.836;3.266;2023-03-01T02:26:40;1.30;99.90
21061;DHT22;10689;50.836;3.266;2023-03-01T02:29:07;1.30;99.90
21061;DHT22;10689;50.836;3.266;2023-03-01T02:31:32;1.30;99.90
21061;DHT22;10689;50.836;3.266;2023-03-01T02:34:10;1.20;99.90
21061;DHT22;10689;50.836;3.266;2023-03-01T02:36:40;1.30;99.90
21061;DHT22;10689;50.836;3.266;2023-03-01T02:39:07;1.40;99.90
21061;DHT22;10689;50.836;3.266;2023-03-01T02:41:44;1.40;99.90
21061;DHT22;10689;50.836;3.266;2023-03-01T02:44:13;1.40;99.90
21061;DHT22;10689;50.836;3.266;2023-03-01T02:46:51;1.20;99.90
21061;DHT22;10689;50.836;3.266;2023-03-01T02:49:31;1.20;99.90
21061;DHT22;10689;50.836;3.266;2023-03-01T02:54:50;1.30;99.90
21061;DHT22;10689;50.836;3.266;2023-03-01T02:57:19;1.30;99.90
21061;DHT22;10689;50.836;3.266;2023-03-01T02:59:47;1.30;99.90
21061;DHT22;10689;50.836;3.266;2023-03-01T03:05:03;1.30;99.90
21061;DHT22;10689;50.836;3.266;2023-03-01T03:07:32;1.30;99.90
21061;DHT22;10689;50.836;3.266;2023-03-01T03:09:58;1.30;99.90
21061;DHT22;10689;50.836;3.266;2023-03-01T03:12:24;1.20;99.90
21061;DHT22;10689;50.836;3.266;2023-03-01T03:14:52;1.20;99.90
21061;DHT22;10689;50.836;3.266;2023-03-01T03:17:17;1.20;99.90
21061;DHT22;10689;50.836;3.266;2023-03-01T03:19:46;1.10;99.90
21061;DHT22;10689;50.836;3.266;2023-03-01T03:22:12;1.10;99.90
21061;DHT22;10689;50.836;3.266;2023-03-01T03:24:38;1.10;99.90
21061;DHT22;10689;50.836;3.266;2023-03-01T03:27:07;1.10;99.90
21061;DHT22;10689;50.836;3.266;2023-03-01T03:29:35;1.20;99.90
21061;DHT22;10689;50.836;3.266;2023-03-01T03:32:01;1.20;99.90
21061;DHT22;10689;50.836;3.266;2023-03-01T03:34:27;1.20;99.90
21061;DHT22;10689;50.836;3.266;2023-03-01T03:36:56;1.20;99.90
21061;DHT22;10689;50.836;3.266;2023-03-01T03:39:28;1.20;99.90
21061;DHT22;10689;50.836;3.266;2023-03-01T03:41:54;1.10;99.90
21061;DHT22;10689;50.836;3.266;2023-03-01T03:44:21;1.00;99.90
21061;DHT22;10689;50.836;3.266;2023-03-01T03:46:47;1.10;99.90
21061;DHT22;10689;50.836;3.266;2023-03-01T03:49:12;1.10;99.90
21061;DHT22;10689;50.836;3.266;2023-03-01T03:51:40;1.10;99.90
21061;DHT22;10689;50.836;3.266;2023-03-01T03:54:08;1.00;99.90
21061;DHT22;10689;50.836;3.266;2023-03-01T03:56:36;1.00;99.90
21061;DHT22;10689;50.836;3.266;2023-03-01T03:59:02;1.10;99.90
21061;DHT22;10689;50.836;3.266;2023-03-01T04:01:28;1.20;99.90
21061;DHT22;10689;50.836;3.266;2023-03-01T04:03:53;1.10;99.90
21061;DHT22;10689;50.836;3.266;2023-03-01T04:06:20;1.10;99.90
21061;DHT22;10689;50.836;3.266;2023-03-01T04:08:48;1.10;99.90
21061;DHT22;10689;50.836;3.266;2023-03-01T04:11:16;1.00;99.90
21061;DHT22;10689;50.836;3.266;2023-03-01T04:13:56;1.20;99.90
21061;DHT22;10689;50.836;3.266;2023-03-01T04:16:23;1.10;99.90
21061;DHT22;10689;50.836;3.266;2023-03-01T04:18:51;1.00;99.90
21061;DHT22;10689;50.836;3.266;2023-03-01T04:21:18;1.10;99.90
21061;DHT22;10689;50.836;3.266;2023-03-01T04:23:45;1.00;99.90
21061;DHT22;10689;50.836;3.266;2023-03-01T04:26:11;1.00;99.90
21061;DHT22;10689;50.836;3.266;2023-03-01T04:28:39;1.00;99.90
21061;DHT22;10689;50.836;3.266;2023-03-01T04:31:11;1.00;99.90
21061;DHT22;10689;50.836;3.266;2023-03-01T04:33:53;1.00;99.90
21061;DHT22;10689;50.836;3.266;2023-03-01T04:36:22;0.90;99.90
21061;DHT22;10689;50.836;3.266;2023-03-01T04:38:48;1.00;99.90
21061;DHT22;10689;50.836;3.266;2023-03-01T04:41:16;1.00;99.90
21061;DHT22;10689;50.836;3.266;2023-03-01T04:43:41;1.00;99.90
21061;DHT22;10689;50.836;3.266;2023-03-01T04:46:12;1.00;99.90
21061;DHT22;10689;50.836;3.266;2023-03-01T04:48:39;1.00;99.90
21061;DHT22;10689;50.836;3.266;2023-03-01T04:51:06;1.00;99.90
21061;DHT22;10689;50.836;3.266;2023-03-01T04:53:33;1.00;99.90
21061;DHT22;10689;50.836;3.266;2023-03-01T04:56:02;1.00;99.90
21061;DHT22;10689;50.836;3.266;2023-03-01T04:58:28;1.00;99.90
21061;DHT22;10689;50.836;3.266;2023-03-01T05:00:55;0.90;99.90
21061;DHT22;10689;50.836;3.266;2023-03-01T05:03:21;0.90;99.90
21061;DHT22;10689;50.836;3.266;2023-03-01T05:05:49;0.90;99.90
21061;DHT22;10689;50.836;3.266;2023-03-01T05:08:16;1.00;99.90
21061;DHT22;10689;50.836;3.266;2023-03-01T05:10:50;1.00;99.90
21061;DHT22;10689;50.836;3.266;2023-03-01T05:13:20;0.90;99.90
21061;DHT22;10689;50.836;3.266;2023-03-01T05:16:04;1.00;99.90
21061;DHT22;10689;50.836;3.266;2023-03-01T05:18:31;1.00;99.90
21061;DHT22;10689;50.836;3.266;2023-03-01T05:21:09;1.00;99.90
21061;DHT22;10689;50.836;3.266;2023-03-01T05:23:38;1.00;99.90
21061;DHT22;10689;50.836;3.266;2023-03-01T05:26:07;0.90;99.90
21061;DHT22;10689;50.836;3.266;2023-03-01T05:28:35;0.90;99.90
21061;DHT22;10689;50.836;3.266;2023-03-01T05:31:01;0.90;99.90
21061;DHT22;10689;50.836;3.266;2023-03-01T05:33:27;0.90;99.90
21061;DHT22;10689;50.836;3.266;2023-03-01T05:35:53;1.00;99.90
21061;DHT22;10689;50.836;3.266;2023-03-01T05:38:20;0.90;99.90
21061;DHT22;10689;50.836;3.266;2023-03-01T05:40:48;0.80;99.90
21061;DHT22;10689;50.836;3.266;2023-03-01T05:43:15;0.80;99.90
21061;DHT22;10689;50.836;3.266;2023-03-01T05:45:42;0.90;99.90
21061;DHT22;10689;50.836;3.266;2023-03-01T05:48:09;0.90;99.90
21061;DHT22;10689;50.836;3.266;2023-03-01T05:50:40;0.90;99.90
21061;DHT22;10689;50.836;3.266;2023-03-01T05:53:13;0.90;99.90
21061;DHT22;10689;50.836;3.266;2023-03-01T05:55:41;0.80;99.90
21061;DHT22;10689;50.836;3.266;2023-03-01T05:58:15;0.90;99.90
21061;DHT22;10689;50.836;3.266;2023-03-01T06:00:43;0.80;99.90
21061;DHT22;10689;50.836;3.266;2023-03-01T06:03:11;0.80;99.90
21061;DHT22;10689;50.836;3.266;2023-03-01T06:05:40;0.80;99.90
21061;DHT22;10689;50.836;3.266;2023-03-01T06:08:06;0.80;99.90
21061;DHT22;10689;50.836;3.266;2023-03-01T06:10:32;0.70;99.90
21061;DHT22;10689;50.836;3.266;2023-03-01T06:12:58;0.60;99.90
21061;DHT22;10689;50.836;3.266;2023-03-01T06:15:27;0.70;99.90
21061;DHT22;10689;50.836;3.266;2023-03-01T06:17:54;0.70;99.90
21061;DHT22;10689;50.836;3.266;2023-03-01T06:20:24;0.70;99.90
21061;DHT22;10689;50.836;3.266;2023-03-01T06:22:50;0.70;99.90
21061;DHT22;10689;50.836;3.266;2023-03-01T06:25:19;0.70;99.90
21061;DHT22;10689;50.836;3.266;2023-03-01T06:27:46;0.60;99.90
21061;DHT22;10689;50.836;3.266;2023-03-01T06:30:14;0.60;99.90
21061;DHT22;10689;50.836;3.266;2023-03-01T06:32:40;0.60;99.90
21061;DHT22;10689;50.836;3.266;2023-03-01T06:35:08;0.60;99.90
21061;DHT22;10689;50.836;3.266;2023-03-01T06:37:34;0.60;99.90
21061;DHT22;10689;50.836;3.266;2023-03-01T06:40:01;0.60;99.90
21061;DHT22;10689;50.836;3.266;2023-03-01T06:42:32;0.60;99.90
21061;DHT22;10689;50.836;3.266;2023-03-01T06:44:58;0.60;99.90
21061;DHT22;10689;50.836;3.266;2023-03-01T06:47:23;0.50;99.90
21061;DHT22;10689;50.836;3.266;2023-03-01T06:49:49;0.40;99.90
21061;DHT22;10689;50.836;3.266;2023-03-01T06:52:14;0.50;99.90
21061;DHT22;10689;50.836;3.266;2023-03-01T06:54:40;0.50;99.90
21061;DHT22;10689;50.836;3.266;2023-03-01T06:57:08;0.60;99.90
21061;DHT22;10689;50.836;3.266;2023-03-01T06:59:34;0.60;99.90
21061;DHT22;10689;50.836;3.266;2023-03-01T07:02:01;0.60;99.90
21061;DHT22;10689;50.836;3.266;2023-03-01T07:04:29;0.60;99.90
21061;DHT22;10689;50.836;3.266;2023-03-01T07:06:55;0.70;99.90
21061;DHT22;10689;50.836;3.266;2023-03-01T07:09:24;0.70;99.90
21061;DHT22;10689;50.836;3.266;2023-03-01T07:11:52;0.70;99.90
21061;DHT22;10689;50.836;3.266;2023-03-01T07:14:17;0.80;99.90
21061;DHT22;10689;50.836;3.266;2023-03-01T07:16:45;0.70;99.90
21061;DHT22;10689;50.836;3.266;2023-03-01T07:19:11;0.80;99.90
21061;DHT22;10689;50.836;3.266;2023-03-01T07:21:37;0.80;99.90
21061;DHT22;10689;50.836;3.266;2023-03-01T07:24:06;0.80;99.90
21061;DHT22;10689;50.836;3.266;2023-03-01T07:26:32;0.90;99.90
21061;DHT22;10689;50.836;3.266;2023-03-01T07:29:02;1.00;99.90
21061;DHT22;10689;50.836;3.266;2023-03-01T07:31:31;1.10;99.90
21061;DHT22;10689;50.836;3.266;2023-03-01T07:33:57;1.10;99.90
21061;DHT22;10689;50.836;3.266;2023-03-01T07:36:25;1.10;99.90
21061;DHT22;10689;50.836;3.266;2023-03-01T07:38:51;1.30;99.90
21061;DHT22;10689;50.836;3.266;2023-03-01T07:41:17;1.40;99.90
21061;DHT22;10689;50.836;3.266;2023-03-01T07:43:47;1.40;99.90
21061;DHT22;10689;50.836;3.266;2023-03-01T07:46:15;1.40;99.90
21061;DHT22;10689;50.836;3.266;2023-03-01T07:48:41;1.50;99.90
21061;DHT22;10689;50.836;3.266;2023-03-01T07:51:07;1.60;99.90
21061;DHT22;10689;50.836;3.266;2023-03-01T07:53:33;1.60;99.90
21061;DHT22;10689;50.836;3.266;2023-03-01T07:56:09;1.70;99.90
21061;DHT22;10689;50.836;3.266;2023-03-01T07:58:37;1.80;99.90
21061;DHT22;10689;50.836;3.266;2023-03-01T08:01:07;1.70;99.90
21061;DHT22;10689;50.836;3.266;2023-03-01T08:03:36;1.80;99.90
21061;DHT22;10689;50.836;3.266;2023-03-01T08:06:04;1.80;99.90
21061;DHT22;10689;50.836;3.266;2023-03-01T08:08:31;1.90;99.90
21061;DHT22;10689;50.836;3.266;2023-03-01T08:11:00;2.00;99.90
21061;DHT22;10689;50.836;3.266;2023-03-01T08:13:27;2.10;99.90
21061;DHT22;10689;50.836;3.266;2023-03-01T08:16:02;2.20;99.90
21061;DHT22;10689;50.836;3.266;2023-03-01T08:18:28;2.30;99.90
21061;DHT22;10689;50.836;3.266;2023-03-01T08:20:54;2.40;99.90
21061;DHT22;10689;50.836;3.266;2023-03-01T08:23:20;2.50;99.90
21061;DHT22;10689;50.836;3.266;2023-03-01T08:25:48;2.50;99.90
21061;DHT22;10689;50.836;3.266;2023-03-01T08:28:13;2.60;99.90
21061;DHT22;10689;50.836;3.266;2023-03-01T08:30:39;2.70;99.90
21061;DHT22;10689;50.836;3.266;2023-03-01T08:33:07;2.70;99.90
21061;DHT22;10689;50.836;3.266;2023-03-01T08:35:33;2.70;99.90
21061;DHT22;10689;50.836;3.266;2023-03-01T08:38:01;2.80;99.90
21061;DHT22;10689;50.836;3.266;2023-03-01T08:40:26;2.80;99.90
21061;DHT22;10689;50.836;3.266;2023-03-01T08:42:52;3.00;99.90
21061;DHT22;10689;50.836;3.266;2023-03-01T08:45:20;3.00;99.90
21061;DHT22;10689;50.836;3.266;2023-03-01T08:47:46;3.10;99.90
21061;DHT22;10689;50.836;3.266;2023-03-01T08:50:11;3.20;99.90
21061;DHT22;10689;50.836;3.266;2023-03-01T08:52:37;3.20;99.90
21061;DHT22;10689;50.836;3.266;2023-03-01T08:55:03;3.20;99.90
21061;DHT22;10689;50.836;3.266;2023-03-01T08:57:29;3.20;99.90
21061;DHT22;10689;50.836;3.266;2023-03-01T08:59:55;3.20;99.90
21061;DHT22;10689;50.836;3.266;2023-03-01T09:02:21;3.30;99.90
21061;DHT22;10689;50.836;3.266;2023-03-01T09:04:47;3.30;99.90
21061;DHT22;10689;50.836;3.266;2023-03-01T09:07:12;3.30;99.90
21061;DHT22;10689;50.836;3.266;2023-03-01T09:09:38;3.40;99.90
21061;DHT22;10689;50.836;3.266;2023-03-01T09:12:04;3.40;99.90
21061;DHT22;10689;50.836;3.266;2023-03-01T09:14:30;3.40;99.90
21061;DHT22;10689;50.836;3.266;2023-03-01T09:16:55;3.50;99.90
21061;DHT22;10689;50.836;3.266;2023-03-01T09:19:21;3.60;99.90
21061;DHT22;10689;50.836;3.266;2023-03-01T09:21:49;3.70;99.90
21061;DHT22;10689;50.836;3.266;2023-03-01T09:24:22;3.60;99.90
21061;DHT22;10689;50.836;3.266;2023-03-01T09:26:48;3.60;99.90
21061;DHT22;10689;50.836;3.266;2023-03-01T09:29:15;3.60;99.90
21061;DHT22;10689;50.836;3.266;2023-03-01T09:31:42;3.60;99.90
21061;DHT22;10689;50.836;3.266;2023-03-01T09:34:08;3.70;99.90
21061;DHT22;10689;50.836;3.266;2023-03-01T09:36:34;3.70;99.90
21061;DHT22;10689;50.836;3.266;2023-03-01T09:39:00;3.80;99.90
21061;DHT22;10689;50.836;3.266;2023-03-01T09:44:20;4.00;99.90
21061;DHT22;10689;50.836;3.266;2023-03-01T09:46:46;4.20;99.90
21061;DHT22;10689;50.836;3.266;2023-03-01T09:49:57;4.20;99.90
21061;DHT22;10689;50.836;3.266;2023-03-01T09:55:11;4.30;99.90
21061;DHT22;10689;50.836;3.266;2023-03-01T09:57:54;4.40;99.90
21061;DHT22;10689;50.836;3.266;2023-03-01T10:00:41;4.40;99.90
21061;DHT22;10689;50.836;3.266;2023-03-01T10:06:08;4.60;99.90
21061;DHT22;10689;50.836;3.266;2023-03-01T10:21:53;5.00;99.90
21061;DHT22;10689;50.836;3.266;2023-03-01T10:24:21;4.90;99.90
21061;DHT22;10689;50.836;3.266;2023-03-01T10:26:54;5.10;99.90
21061;DHT22;10689;50.836;3.266;2023-03-01T10:29:25;5.20;99.90
21061;DHT22;10689;50.836;3.266;2023-03-01T10:31:52;5.20;99.90
21061;DHT22;10689;50.836;3.266;2023-03-01T10:34:33;5.30;99.90
21061;DHT22;10689;50.836;3.266;2023-03-01T10:37:18;5.50;99.90
21061;DHT22;10689;50.836;3.266;2023-03-01T10:39:57;5.40;99.90
21061;DHT22;10689;50.836;3.266;2023-03-01T10:42:32;5.40;99.90
21061;DHT22;10689;50.836;3.266;2023-03-01T10:45:25;5.40;99.90
21061;DHT22;10689;50.836;3.266;2023-03-01T10:48:22;5.50;99.90
21061;DHT22;10689;50.836;3.266;2023-03-01T10:51:12;5.60;99.90
21061;DHT22;10689;50.836;3.266;2023-03-01T10:53:48;5.60;99.90
21061;DHT22;10689;50.836;3.266;2023-03-01T10:56:15;5.80;99.90
21061;DHT22;10689;50.836;3.266;2023-03-01T10:59:00;6.00;99.90
21061;DHT22;10689;50.836;3.266;2023-03-01T11:01:29;6.10;99.90
21061;DHT22;10689;50.836;3.266;2023-03-01T11:06:39;6.20;99.90
21061;DHT22;10689;50.836;3.266;2023-03-01T11:09:21;6.20;99.90
21061;DHT22;10689;50.836;3.266;2023-03-01T11:11:52;6.30;99.90
21061;DHT22;10689;50.836;3.266;2023-03-01T11:14:22;6.30;99.90
21061;DHT22;10689;50.836;3.266;2023-03-01T11:17:04;6.40;99.90
21061;DHT22;10689;50.836;3.266;2023-03-01T11:19:30;6.40;99.90
21061;DHT22;10689;50.836;3.266;2023-03-01T11:22:02;6.40;99.90
21061;DHT22;10689;50.836;3.266;2023-03-01T11:27:18;6.50;99.90
21061;DHT22;10689;50.836;3.266;2023-03-01T11:29:57;6.70;99.90
21061;DHT22;10689;50.836;3.266;2023-03-01T11:32:27;6.80;99.90
21061;DHT22;10689;50.836;3.266;2023-03-01T11:35:21;6.80;99.90
21061;DHT22;10689;50.836;3.266;2023-03-01T11:43:49;6.90;99.90
21061;DHT22;10689;50.836;3.266;2023-03-01T11:46:46;7.10;99.90
21061;DHT22;10689;50.836;3.266;2023-03-01T11:57:05;7.00;99.90
21061;DHT22;10689;50.836;3.266;2023-03-01T12:00:00;7.00;99.90
21061;DHT22;10689;50.836;3.266;2023-03-01T12:13:51;7.50;99.90
21061;DHT22;10689;50.836;3.266;2023-03-01T12:24:56;7.70;99.90
21061;DHT22;10689;50.836;3.266;2023-03-01T12:38:33;8.50;99.90
21061;DHT22;10689;50.836;3.266;2023-03-01T12:44:21;8.90;99.90
21061;DHT22;10689;50.836;3.266;2023-03-01T12:50:01;8.80;99.90
21061;DHT22;10689;50.836;3.266;2023-03-01T12:52:56;8.70;99.90
21061;DHT22;10689;50.836;3.266;2023-03-01T12:58:31;8.80;99.90
21061;DHT22;10689;50.836;3.266;2023-03-01T13:17:51;9.00;99.90
21061;DHT22;10689;50.836;3.266;2023-03-01T13:20:24;9.10;99.90
21061;DHT22;10689;50.836;3.266;2023-03-01T13:23:01;9.20;99.90
21061;DHT22;10689;50.836;3.266;2023-03-01T13:25:31;9.10;99.90
21061;DHT22;10689;50.836;3.266;2023-03-01T13:31:00;9.00;99.90
21061;DHT22;10689;50.836;3.266;2023-03-01T13:35:58;9.00;99.90
21061;DHT22;10689;50.836;3.266;2023-03-01T13:41:16;8.70;99.90
21061;DHT22;10689;50.836;3.266;2023-03-01T13:43:44;8.80;99.90
21061;DHT22;10689;50.836;3.266;2023-03-01T13:46:20;8.70;99.90
21061;DHT22;10689;50.836;3.266;2023-03-01T13:48:53;8.60;99.90
21061;DHT22;10689;50.836;3.266;2023-03-01T13:51:26;8.40;99.90
21061;DHT22;10689;50.836;3.266;2023-03-01T13:53:53;8.40;99.90
21061;DHT22;10689;50.836;3.266;2023-03-01T13:56:24;8.60;99.90
21061;DHT22;10689;50.836;3.266;2023-03-01T14:01:28;8.40;99.90
21061;DHT22;10689;50.836;3.266;2023-03-01T14:03:55;8.60;99.90
21061;DHT22;10689;50.836;3.266;2023-03-01T14:06:24;8.60;99.90
21061;DHT22;10689;50.836;3.266;2023-03-01T14:09:37;8.40;99.90
21061;DHT22;10689;50.836;3.266;2023-03-01T14:14:17;8.60;99.90
21061;DHT22;10689;50.836;3.266;2023-03-01T14:19:57;8.30;99.90
21061;DHT22;10689;50.836;3.266;2023-03-01T14:22:29;8.20;99.90
21061;DHT22;10689;50.836;3.266;2023-03-01T14:27:30;8.20;99.90
21061;DHT22;10689;50.836;3.266;2023-03-01T14:29:59;8.20;99.90
21061;DHT22;10689;50.836;3.266;2023-03-01T14:32:30;8.30;99.90
21061;DHT22;10689;50.836;3.266;2023-03-01T14:34:57;8.40;99.90
21061;DHT22;10689;50.836;3.266;2023-03-01T14:37:29;8.10;99.90
21061;DHT22;10689;50.836;3.266;2023-03-01T14:39:58;7.90;99.90
21061;DHT22;10689;50.836;3.266;2023-03-01T14:42:28;7.70;99.90
21061;DHT22;10689;50.836;3.266;2023-03-01T14:44:56;7.70;99.90
21061;DHT22;10689;50.836;3.266;2023-03-01T14:47:34;7.80;99.90
21061;DHT22;10689;50.836;3.266;2023-03-01T14:50:07;7.70;99.90
21061;DHT22;10689;50.836;3.266;2023-03-01T14:52:39;7.70;99.90
21061;DHT22;10689;50.836;3.266;2023-03-01T14:55:13;7.70;99.90
21061;DHT22;10689;50.836;3.266;2023-03-01T14:57:44;7.60;99.90
21061;DHT22;10689;50.836;3.266;2023-03-01T15:00:20;7.70;99.90
21061;DHT22;10689;50.836;3.266;2023-03-01T15:02:52;7.80;99.90
21061;DHT22;10689;50.836;3.266;2023-03-01T15:05:26;7.70;99.90
21061;DHT22;10689;50.836;3.266;2023-03-01T15:07:54;7.60;99.90
21061;DHT22;10689;50.836;3.266;2023-03-01T15:10:28;7.50;99.90
21061;DHT22;10689;50.836;3.266;2023-03-01T15:12:54;7.50;99.90
21061;DHT22;10689;50.836;3.266;2023-03-01T15:15:30;7.30;99.90
21061;DHT22;10689;50.836;3.266;2023-03-01T15:17:59;7.30;99.90
21061;DHT22;10689;50.836;3.266;2023-03-01T15:20:28;7.30;99.90
21061;DHT22;10689;50.836;3.266;2023-03-01T15:22:56;7.30;99.90
21061;DHT22;10689;50.836;3.266;2023-03-01T15:25:27;7.20;99.90
21061;DHT22;10689;50.836;3.266;2023-03-01T15:27:55;7.00;99.90
21061;DHT22;10689;50.836;3.266;2023-03-01T15:30:22;7.10;99.90
21061;DHT22;10689;50.836;3.266;2023-03-01T15:32:54;7.10;99.90
21061;DHT22;10689;50.836;3.266;2023-03-01T15:35:46;7.10;99.90
21061;DHT22;10689;50.836;3.266;2023-03-01T15:41:37;7.20;99.90
21061;DHT22;10689;50.836;3.266;2023-03-01T15:44:26;7.20;99.90
21061;DHT22;10689;50.836;3.266;2023-03-01T15:46:52;7.10;99.90
21061;DHT22;10689;50.836;3.266;2023-03-01T15:49:39;7.00;99.90
21061;DHT22;10689;50.836;3.266;2023-03-01T15:52:12;7.00;99.90
21061;DHT22;10689;50.836;3.266;2023-03-01T15:54:41;7.00;99.90
21061;DHT22;10689;50.836;3.266;2023-03-01T15:57:13;7.10;99.90
21061;DHT22;10689;50.836;3.266;2023-03-01T15:59:41;7.10;99.90
21061;DHT22;10689;50.836;3.266;2023-03-01T16:02:11;7.10;99.90
21061;DHT22;10689;50.836;3.266;2023-03-01T16:04:42;7.00;99.90
21061;DHT22;10689;50.836;3.266;2023-03-01T16:07:09;7.00;99.90
21061;DHT22;10689;50.836;3.266;2023-03-01T16:09:35;7.10;99.90
21061;DHT22;10689;50.836;3.266;2023-03-01T16:12:03;7.10;99.90
21061;DHT22;10689;50.836;3.266;2023-03-01T16:14:29;7.00;99.90
21061;DHT22;10689;50.836;3.266;2023-03-01T16:16:55;6.90;99.90
21061;DHT22;10689;50.836;3.266;2023-03-01T16:19:20;6.80;99.90
21061;DHT22;10689;50.836;3.266;2023-03-01T16:21:46;6.70;99.90
21061;DHT22;10689;50.836;3.266;2023-03-01T16:24:14;6.80;99.90
21061;DHT22;10689;50.836;3.266;2023-03-01T16:26:40;6.80;99.90
21061;DHT22;10689;50.836;3.266;2023-03-01T16:29:05;6.80;99.90
21061;DHT22;10689;50.836;3.266;2023-03-01T16:31:31;6.80;99.90
21061;DHT22;10689;50.836;3.266;2023-03-01T16:34:01;6.70;99.90
21061;DHT22;10689;50.836;3.266;2023-03-01T16:36:27;6.70;99.90
21061;DHT22;10689;50.836;3.266;2023-03-01T16:38:54;6.60;99.90
21061;DHT22;10689;50.836;3.266;2023-03-01T16:41:21;6.60;99.90
21061;DHT22;10689;50.836;3.266;2023-03-01T16:43:47;6.60;99.90
21061;DHT22;10689;50.836;3.266;2023-03-01T16:46:16;6.70;99.90
21061;DHT22;10689;50.836;3.266;2023-03-01T16:48:45;6.60;99.90
21061;DHT22;10689;50.836;3.266;2023-03-01T16:51:11;6.60;99.90
21061;DHT22;10689;50.836;3.266;2023-03-01T16:53:38;6.60;99.90
21061;DHT22;10689;50.836;3.266;2023-03-01T16:56:06;6.60;99.90
21061;DHT22;10689;50.836;3.266;2023-03-01T16:58:33;6.60;99.90
21061;DHT22;10689;50.836;3.266;2023-03-01T17:01:07;6.60;99.90
21061;DHT22;10689;50.836;3.266;2023-03-01T17:03:34;6.50;99.90
21061;DHT22;10689;50.836;3.266;2023-03-01T17:06:04;6.50;99.90
21061;DHT22;10689;50.836;3.266;2023-03-01T17:08:30;6.40;99.90
21061;DHT22;10689;50.836;3.266;2023-03-01T17:11:12;6.40;99.90
21061;DHT22;10689;50.836;3.266;2023-03-01T17:13:38;6.30;99.90
21061;DHT22;10689;50.836;3.266;2023-03-01T17:16:11;6.30;99.90
21061;DHT22;10689;50.836;3.266;2023-03-01T17:18:37;6.30;99.90
21061;DHT22;10689;50.836;3.266;2023-03-01T17:21:03;6.20;99.90
21061;DHT22;10689;50.836;3.266;2023-03-01T17:23:30;6.10;99.90
21061;DHT22;10689;50.836;3.266;2023-03-01T17:25:56;6.10;99.90
21061;DHT22;10689;50.836;3.266;2023-03-01T17:28:24;6.00;99.90
21061;DHT22;10689;50.836;3.266;2023-03-01T17:30:50;5.90;99.90
21061;DHT22;10689;50.836;3.266;2023-03-01T17:33:16;5.80;99.90
21061;DHT22;10689;50.836;3.266;2023-03-01T17:35:42;5.80;99.90
21061;DHT22;10689;50.836;3.266;2023-03-01T17:38:10;5.70;99.90
21061;DHT22;10689;50.836;3.266;2023-03-01T17:40:36;5.80;99.90
21061;DHT22;10689;50.836;3.266;2023-03-01T17:43:02;5.80;99.90
21061;DHT22;10689;50.836;3.266;2023-03-01T17:45:28;5.90;99.90
21061;DHT22;10689;50.836;3.266;2023-03-01T17:47:56;5.80;99.90
21061;DHT22;10689;50.836;3.266;2023-03-01T17:50:22;5.70;99.90
21061;DHT22;10689;50.836;3.266;2023-03-01T17:52:48;5.60;99.90
21061;DHT22;10689;50.836;3.266;2023-03-01T17:55:14;5.50;99.90
21061;DHT22;10689;50.836;3.266;2023-03-01T17:57:40;5.50;99.90
21061;DHT22;10689;50.836;3.266;2023-03-01T18:00:11;5.50;99.90
21061;DHT22;10689;50.836;3.266;2023-03-01T18:02:37;5.40;99.90
21061;DHT22;10689;50.836;3.266;2023-03-01T18:05:05;5.40;99.90
21061;DHT22;10689;50.836;3.266;2023-03-01T18:07:31;5.40;99.90
21061;DHT22;10689;50.836;3.266;2023-03-01T18:09:59;5.30;99.90